createdAt,value
2019-03-05T00:00:47.108Z,8.37
2019-03-05T00:05:57.522Z,8.41
2019-03-05T00:11:04.537Z,8.50
2019-03-05T00:16:15.219Z,8.57
2019-03-05T00:21:23.245Z,8.26
2019-03-05T00:26:39.477Z,8.57
2019-03-05T00:31:56.313Z,8.62
2019-03-05T00:37:13.865Z,8.78
2019-03-05T00:42:56.074Z,8.81
2019-03-05T00:48:31.803Z,8.32
2019-03-05T00:53:57.819Z,9.01
2019-03-05T00:59:13.607Z,8.46
2019-03-05T01:04:25.331Z,8.64
2019-03-05T01:09:31.900Z,8.98
2019-03-05T01:14:39.624Z,8.72
2019-03-05T01:19:46.323Z,8.81
2019-03-05T01:24:52.847Z,8.56
2019-03-05T01:30:06.222Z,8.56
2019-03-05T01:35:15.105Z,8.88
2019-03-05T01:40:26.170Z,8.48
2019-03-05T01:45:36.079Z,8.41
2019-03-05T01:50:42.530Z,8.51
2019-03-05T01:55:48.928Z,8.44
2019-03-05T02:00:57.269Z,8.45
2019-03-05T02:06:09.998Z,8.39
2019-03-05T02:11:17.583Z,8.32
2019-03-05T02:16:25.276Z,8.51
2019-03-05T02:21:33.922Z,8.69
2019-03-05T02:26:56.618Z,8.49
2019-03-05T02:32:13.022Z,8.43
2019-03-05T02:37:38.504Z,8.57
2019-03-05T02:43:00.486Z,8.30
2019-03-05T02:48:32.554Z,8.06
2019-03-05T02:53:45.594Z,8.14
2019-03-05T02:58:53.216Z,8.03
2019-03-05T03:04:14.438Z,8.13
2019-03-05T03:09:46.317Z,8.14
2019-03-05T03:14:53.808Z,8.07
2019-03-05T03:20:01.752Z,7.90
2019-03-05T03:25:21.424Z,8.14
2019-03-05T03:30:28.453Z,8.07
2019-03-05T03:35:39.748Z,7.98
2019-03-05T03:40:45.795Z,8.14
2019-03-05T03:45:56.391Z,8.40
2019-03-05T03:51:04.520Z,8.40
2019-03-05T03:56:15.088Z,8.19
2019-03-05T04:01:23.445Z,8.29
2019-03-05T04:06:29.272Z,8.74
2019-03-05T04:11:35.587Z,8.26
2019-03-05T04:16:41.435Z,8.26
2019-03-05T04:21:48.385Z,8.82
2019-03-05T04:26:54.474Z,8.14
2019-03-05T04:32:00.681Z,8.45
2019-03-05T04:37:06.426Z,8.08
2019-03-05T04:42:12.692Z,8.24
2019-03-05T04:47:19.077Z,8.04
2019-03-05T04:52:25.830Z,8.65
2019-03-05T04:57:31.415Z,8.25
2019-03-05T05:02:37.771Z,7.74
2019-03-05T05:07:45.615Z,7.83
2019-03-05T05:12:51.679Z,7.69
2019-03-05T05:17:59.223Z,7.65
2019-03-05T05:23:06.606Z,7.77
2019-03-05T05:28:18.269Z,8.15
2019-03-05T05:33:25.905Z,7.87
2019-03-05T05:38:35.852Z,7.88
2019-03-05T05:43:42.805Z,7.58
2019-03-05T05:48:48.679Z,7.78
2019-03-05T05:53:54.625Z,7.79
2019-03-05T05:59:00.595Z,7.85
2019-03-05T06:04:06.229Z,7.91
2019-03-05T06:09:12.194Z,8.15
2019-03-05T06:14:18.072Z,7.82
2019-03-05T06:19:24.147Z,8.11
2019-03-05T06:24:29.938Z,7.73
2019-03-05T06:29:35.607Z,8.06
2019-03-05T06:34:41.944Z,7.81
2019-03-05T06:39:48.073Z,8.10
2019-03-05T06:44:54.194Z,8.13
2019-03-05T06:50:00.093Z,8.48
2019-03-05T06:55:08.864Z,8.14
2019-03-05T07:00:24.909Z,8.18
2019-03-05T07:06:06.867Z,8.04
2019-03-05T07:11:36.264Z,8.07
2019-03-05T07:16:54.274Z,7.84
2019-03-05T07:22:08.430Z,8.44
2019-03-05T07:27:16.416Z,8.26
2019-03-05T07:32:22.426Z,8.69
2019-03-05T07:37:28.368Z,8.67
2019-03-05T07:42:35.170Z,8.35
2019-03-05T07:47:41.076Z,8.81
2019-03-05T07:52:46.742Z,9.30
2019-03-05T07:57:52.560Z,8.86
2019-03-05T08:02:58.319Z,8.60
2019-03-05T08:08:40.741Z,9.29
2019-03-05T08:14:04.258Z,9.25
2019-03-05T08:19:10.598Z,9.19
2019-03-05T08:24:16.719Z,8.68
2019-03-05T08:29:23.553Z,9.33
2019-03-05T08:34:31.186Z,9.27
2019-03-05T08:39:38.971Z,8.92
2019-03-05T08:44:50.279Z,9.04
2019-03-05T08:49:53.605Z,8.92
2019-03-05T08:54:59.501Z,8.77
2019-03-05T09:00:14.472Z,8.91
2019-03-05T09:05:20.925Z,8.79
2019-03-05T09:10:28.247Z,8.79
2019-03-05T09:15:35.921Z,9.06
2019-03-05T09:20:42.301Z,9.16
2019-03-05T09:25:48.683Z,8.79
2019-03-05T09:30:55.869Z,9.04
2019-03-05T09:36:02.149Z,9.00
2019-03-05T09:41:08.183Z,9.46
2019-03-05T09:46:14.409Z,9.23
2019-03-05T09:51:21.152Z,8.95
2019-03-05T09:56:28.913Z,8.59
2019-03-05T10:01:35.449Z,8.47
2019-03-05T10:06:41.240Z,8.26
2019-03-05T10:11:47.801Z,8.50
2019-03-05T10:16:53.375Z,8.96
2019-03-05T10:21:59.096Z,9.28
2019-03-05T10:27:05.396Z,9.08
2019-03-05T10:32:12.585Z,9.55
2019-03-05T10:37:19.163Z,9.01
2019-03-05T10:42:24.875Z,9.78
2019-03-05T10:47:30.695Z,9.35
2019-03-05T10:52:36.876Z,9.79
2019-03-05T10:57:44.375Z,10.15
2019-03-05T11:02:51.767Z,9.96
2019-03-05T11:07:58.473Z,9.59
2019-03-05T11:13:04.770Z,9.65
2019-03-05T11:18:12.909Z,10.18
2019-03-05T11:23:18.683Z,10.22
2019-03-05T11:28:25.263Z,9.97
2019-03-05T11:33:31.983Z,10.01
2019-03-05T11:38:38.583Z,10.01
2019-03-05T11:43:44.722Z,9.99
2019-03-05T11:48:50.627Z,9.51
2019-03-05T11:53:56.337Z,9.56
2019-03-05T11:59:02.207Z,10.46
2019-03-05T12:04:08.175Z,9.44
2019-03-05T12:09:14.163Z,9.18
2019-03-05T12:14:20.616Z,9.85
2019-03-05T12:19:26.790Z,9.91
2019-03-05T12:24:33.224Z,11.04
2019-03-05T12:29:40.105Z,10.33
2019-03-05T12:34:45.903Z,10.48
2019-03-05T12:39:51.747Z,11.42
2019-03-05T12:44:58.881Z,10.66
2019-03-05T12:50:08.091Z,11.33
2019-03-05T12:55:17.768Z,11.60
2019-03-05T13:00:32.377Z,10.68
2019-03-05T13:05:38.156Z,10.36
2019-03-05T13:10:45.180Z,8.38
2019-03-05T13:15:56.507Z,8.71
2019-03-05T13:21:03.636Z,9.29
2019-03-05T13:26:10.075Z,9.84
2019-03-05T13:31:15.951Z,10.30
2019-03-05T13:36:22.027Z,11.11
2019-03-05T13:41:27.580Z,11.13
2019-03-05T13:46:35.024Z,10.97
2019-03-05T13:51:59.710Z,10.85
2019-03-05T13:57:24.656Z,10.16
2019-03-05T14:02:31.140Z,10.12
2019-03-05T14:08:07.063Z,10.11
2019-03-05T14:13:12.895Z,9.77
2019-03-05T14:18:19.381Z,9.62
2019-03-05T14:23:25.478Z,10.56
2019-03-05T14:28:32.163Z,10.30
2019-03-05T14:33:38.178Z,11.13
2019-03-05T14:38:44.530Z,10.95
2019-03-05T14:43:50.558Z,10.71
2019-03-05T14:48:57.730Z,11.51
2019-03-05T14:54:04.196Z,11.03
2019-03-05T14:59:10.553Z,12.14
2019-03-05T15:04:17.076Z,11.96
2019-03-05T15:09:23.866Z,11.75
2019-03-05T15:14:29.743Z,10.77
2019-03-05T15:19:36.803Z,10.77
2019-03-05T15:24:43.166Z,10.25
2019-03-05T15:29:49.387Z,10.03
2019-03-05T15:34:55.837Z,9.76
2019-03-05T15:40:02.219Z,9.29
2019-03-05T15:45:13.901Z,9.19
2019-03-05T15:50:28.429Z,8.77
2019-03-05T15:55:34.846Z,8.68
2019-03-05T16:00:42.072Z,9.36
2019-03-05T16:05:53.927Z,9.01
2019-03-05T16:11:00.674Z,8.77
2019-03-05T16:16:06.894Z,8.12
2019-03-05T16:21:13.992Z,7.91
2019-03-05T16:26:23.713Z,7.32
2019-03-05T16:31:31.664Z,5.90
2019-03-05T16:36:42.118Z,5.83
2019-03-05T16:41:53.309Z,6.24
2019-03-05T16:47:17.659Z,6.74
2019-03-05T16:52:32.791Z,6.63
2019-03-05T16:57:55.366Z,6.49
2019-03-05T17:03:09.181Z,6.44
2019-03-05T17:08:34.019Z,6.68
2019-03-05T17:13:40.104Z,6.78
2019-03-05T17:18:46.728Z,6.72
2019-03-05T17:23:55.121Z,6.71
2019-03-05T17:29:01.535Z,6.80
2019-03-05T17:34:10.659Z,6.71
2019-03-05T17:39:21.579Z,6.69
2019-03-05T17:44:27.109Z,6.75
2019-03-05T17:49:33.417Z,6.73
2019-03-05T17:54:41.026Z,6.71
2019-03-05T17:59:46.837Z,6.72
2019-03-05T18:04:52.544Z,7.03
2019-03-05T18:09:58.455Z,7.12
2019-03-05T18:15:07.697Z,6.83
2019-03-05T18:20:22.454Z,6.81
2019-03-05T18:25:30.223Z,7.10
2019-03-05T18:30:37.151Z,6.93
2019-03-05T18:35:46.098Z,6.96
2019-03-05T18:40:53.229Z,7.18
2019-03-05T18:46:00.971Z,6.96
2019-03-05T18:51:07.287Z,7.46
2019-03-05T18:56:16.571Z,7.46
2019-03-05T19:01:23.015Z,7.50
2019-03-05T19:06:28.737Z,6.96
2019-03-05T19:11:36.553Z,7.23
2019-03-05T19:16:42.876Z,7.21
2019-03-05T19:21:48.631Z,7.15
2019-03-05T19:26:54.623Z,6.84
2019-03-05T19:32:03.994Z,6.65
2019-03-05T19:37:10.563Z,6.78
2019-03-05T19:42:16.114Z,6.87
2019-03-05T19:47:22.102Z,7.16
2019-03-05T19:52:27.903Z,7.02
2019-03-05T19:57:34.125Z,7.32
2019-03-05T20:02:40.238Z,7.03
2019-03-05T20:07:49.939Z,6.99
2019-03-05T20:12:56.044Z,6.95
2019-03-05T20:18:01.910Z,6.67
2019-03-05T20:23:08.162Z,6.85
2019-03-05T20:28:14.571Z,6.93
2019-03-05T20:33:20.564Z,6.98
2019-03-05T20:38:26.259Z,7.22
2019-03-05T20:43:33.072Z,7.14
2019-03-05T20:48:40.562Z,6.91
2019-03-05T20:53:46.769Z,6.82
2019-03-05T20:58:52.309Z,6.83
2019-03-05T21:03:58.809Z,6.85
2019-03-05T21:09:08.895Z,6.79
2019-03-05T21:14:16.553Z,6.84
2019-03-05T21:19:22.343Z,7.19
2019-03-05T21:24:27.937Z,6.73
2019-03-05T21:29:33.948Z,7.13
2019-03-05T21:34:40.320Z,7.03
2019-03-05T21:39:46.261Z,7.05
2019-03-05T21:44:52.066Z,7.23
2019-03-05T21:49:58.737Z,7.15
2019-03-05T21:55:06.784Z,7.21
2019-03-05T22:00:15.543Z,7.19
2019-03-05T22:05:22.825Z,7.05
2019-03-05T22:10:31.757Z,6.92
2019-03-05T22:15:37.927Z,7.08
2019-03-05T22:20:43.795Z,6.92
2019-03-05T22:25:49.425Z,6.89
2019-03-05T22:30:55.580Z,6.86
2019-03-05T22:36:02.841Z,6.78
2019-03-05T22:41:08.662Z,6.96
2019-03-05T22:46:15.005Z,6.71
2019-03-05T22:51:20.866Z,6.89
2019-03-05T22:56:26.646Z,6.70
2019-03-05T23:01:35.819Z,6.69
2019-03-05T23:06:42.554Z,6.81
2019-03-05T23:11:48.828Z,6.54
2019-03-05T23:16:55.201Z,6.71
2019-03-05T23:22:01.364Z,6.81
2019-03-05T23:27:28.626Z,6.83
2019-03-05T23:32:34.402Z,6.82
2019-03-05T23:37:42.199Z,6.50
2019-03-05T23:42:47.972Z,6.74
2019-03-05T23:47:53.916Z,6.77
2019-03-05T23:53:00.266Z,6.58
2019-03-05T23:58:08.802Z,6.64
